sensor_id;sensor_type;location;lat;lon;timestamp;temperature;humidity
70676;DHT22;59069;52.242;20.900;2023-06-10T00:00:09;20.93;60.24
70676;DHT22;59069;52.242;20.900;2023-06-10T00:02:37;20.90;60.09
70676;DHT22;59069;52.242;20.900;2023-06-10T00:05:03;20.86;59.77
70676;DHT22;59069;52.242;20.900;2023-06-10T00:07:29;20.83;59.56
70676;DHT22;59069;52.242;20.900;2023-06-10T00:09:54;20.79;58.97
70676;DHT22;59069;52.242;20.900;2023-06-10T00:12:20;20.74;58.19
70676;DHT22;59069;52.242;20.900;2023-06-10T00:14:46;20.70;57.01
70676;DHT22;59069;52.242;20.900;2023-06-10T00:17:11;20.64;56.00
70676;DHT22;59069;52.242;20.900;2023-06-10T00:19:37;20.59;55.36
70676;DHT22;59069;52.242;20.900;2023-06-10T00:22:07;20.56;54.80
70676;DHT22;59069;52.242;20.900;2023-06-10T00:24:32;20.53;54.48
70676;DHT22;59069;52.242;20.900;2023-06-10T00:26:58;20.50;54.24
70676;DHT22;59069;52.242;20.900;2023-06-10T00:29:23;20.49;53.88
70676;DHT22;59069;52.242;20.900;2023-06-10T00:31:48;20.43;53.52
70676;DHT22;59069;52.242;20.900;2023-06-10T00:34:14;20.36;53.28
70676;DHT22;59069;52.242;20.900;2023-06-10T00:36:40;20.33;52.94
70676;DHT22;59069;52.242;20.900;2023-06-10T00:39:05;20.30;52.71
70676;DHT22;59069;52.242;20.900;2023-06-10T00:41:31;20.25;52.47
70676;DHT22;59069;52.242;20.900;2023-06-10T00:43:57;20.18;51.85
70676;DHT22;59069;52.242;20.900;2023-06-10T00:46:23;20.09;51.15
70676;DHT22;59069;52.242;20.900;2023-06-10T00:48:50;20.06;50.58
70676;DHT22;59069;52.242;20.900;2023-06-10T00:51:16;20.05;50.05
70676;DHT22;59069;52.242;20.900;2023-06-10T00:53:42;19.99;49.71
70676;DHT22;59069;52.242;20.900;2023-06-10T00:56:08;19.95;49.23
70676;DHT22;59069;52.242;20.900;2023-06-10T00:58:34;19.86;48.61
70676;DHT22;59069;52.242;20.900;2023-06-10T01:01:01;19.81;48.36
70676;DHT22;59069;52.242;20.900;2023-06-10T01:03:27;19.78;48.18
70676;DHT22;59069;52.242;20.900;2023-06-10T01:11:47;19.68;47.58
70676;DHT22;59069;52.242;20.900;2023-06-10T01:14:13;19.64;47.56
70676;DHT22;59069;52.242;20.900;2023-06-10T01:16:42;19.58;47.52
70676;DHT22;59069;52.242;20.900;2023-06-10T01:19:11;19.53;47.45
70676;DHT22;59069;52.242;20.900;2023-06-10T01:21:38;19.50;47.45
70676;DHT22;59069;52.242;20.900;2023-06-10T01:24:04;19.44;47.44
70676;DHT22;59069;52.242;20.900;2023-06-10T01:26:34;19.44;47.32
70676;DHT22;59069;52.242;20.900;2023-06-10T01:29:15;19.41;47.30
70676;DHT22;59069;52.242;20.900;2023-06-10T01:34:14;19.31;47.52
70676;DHT22;59069;52.242;20.900;2023-06-10T01:36:44;19.28;47.62
70676;DHT22;59069;52.242;20.900;2023-06-10T01:39:11;19.24;47.59
70676;DHT22;59069;52.242;20.900;2023-06-10T01:41:38;19.20;47.63
70676;DHT22;59069;52.242;20.900;2023-06-10T01:44:05;19.19;47.72
70676;DHT22;59069;52.242;20.900;2023-06-10T01:46:30;19.17;47.84
70676;DHT22;59069;52.242;20.900;2023-06-10T01:48:56;19.13;47.87
70676;DHT22;59069;52.242;20.900;2023-06-10T01:51:21;19.10;47.94
70676;DHT22;59069;52.242;20.900;2023-06-10T01:53:47;19.06;47.97
70676;DHT22;59069;52.242;20.900;2023-06-10T01:56:12;19.03;48.16
70676;DHT22;59069;52.242;20.900;2023-06-10T01:58:44;19.00;48.38
70676;DHT22;59069;52.242;20.900;2023-06-10T02:01:09;18.96;48.49
70676;DHT22;59069;52.242;20.900;2023-06-10T02:03:35;18.92;48.68
70676;DHT22;59069;52.242;20.900;2023-06-10T02:06:01;18.88;48.83
70676;DHT22;59069;52.242;20.900;2023-06-10T02:08:26;18.82;48.88
70676;DHT22;59069;52.242;20.900;2023-06-10T02:10:53;18.77;49.12
70676;DHT22;59069;52.242;20.900;2023-06-10T02:13:18;18.73;49.40
70676;DHT22;59069;52.242;20.900;2023-06-10T02:15:44;18.72;49.48
70676;DHT22;59069;52.242;20.900;2023-06-10T02:18:09;18.71;49.71
70676;DHT22;59069;52.242;20.900;2023-06-10T02:20:37;18.66;49.86
70676;DHT22;59069;52.242;20.900;2023-06-10T02:23:02;18.62;50.05
70676;DHT22;59069;52.242;20.900;2023-06-10T02:25:28;18.59;50.29
70676;DHT22;59069;52.242;20.900;2023-06-10T02:27:54;18.56;50.45
70676;DHT22;59069;52.242;20.900;2023-06-10T02:30:19;18.53;50.70
70676;DHT22;59069;52.242;20.900;2023-06-10T02:32:44;18.51;50.90
70676;DHT22;59069;52.242;20.900;2023-06-10T02:35:16;18.48;51.11
70676;DHT22;59069;52.242;20.900;2023-06-10T02:37:43;18.40;51.20
70676;DHT22;59069;52.242;20.900;2023-06-10T02:40:09;18.38;51.37
70676;DHT22;59069;52.242;20.900;2023-06-10T02:42:35;18.35;51.49
70676;DHT22;59069;52.242;20.900;2023-06-10T02:45:01;18.30;51.73
70676;DHT22;59069;52.242;20.900;2023-06-10T02:47:27;18.28;51.86
70676;DHT22;59069;52.242;20.900;2023-06-10T02:49:52;18.27;52.04
70676;DHT22;59069;52.242;20.900;2023-06-10T02:52:18;18.30;52.17
70676;DHT22;59069;52.242;20.900;2023-06-10T02:54:43;18.31;52.29
70676;DHT22;59069;52.242;20.900;2023-06-10T02:57:10;18.31;52.43
70676;DHT22;59069;52.242;20.900;2023-06-10T02:59:35;18.30;52.39
70676;DHT22;59069;52.242;20.900;2023-06-10T03:02:01;18.30;52.47
70676;DHT22;59069;52.242;20.900;2023-06-10T03:04:26;18.31;52.62
70676;DHT22;59069;52.242;20.900;2023-06-10T03:06:54;18.31;52.69
70676;DHT22;59069;52.242;20.900;2023-06-10T03:09:20;18.34;52.65
70676;DHT22;59069;52.242;20.900;2023-06-10T03:11:45;18.35;52.68
70676;DHT22;59069;52.242;20.900;2023-06-10T03:14:11;18.40;52.69
70676;DHT22;59069;52.242;20.900;2023-06-10T03:16:36;18.37;52.74
70676;DHT22;59069;52.242;20.900;2023-06-10T03:19:06;18.40;52.81
70676;DHT22;59069;52.242;20.900;2023-06-10T03:21:31;18.40;52.91
70676;DHT22;59069;52.242;20.900;2023-06-10T03:23:57;18.38;52.94
70676;DHT22;59069;52.242;20.900;2023-06-10T03:26:22;18.40;53.00
70676;DHT22;59069;52.242;20.900;2023-06-10T03:28:48;18.41;53.06
70676;DHT22;59069;52.242;20.900;2023-06-10T03:31:14;18.42;53.23
70676;DHT22;59069;52.242;20.900;2023-06-10T03:33:42;18.45;53.20
70676;DHT22;59069;52.242;20.900;2023-06-10T03:36:07;18.48;53.18
70676;DHT22;59069;52.242;20.900;2023-06-10T03:38:33;18.49;53.24
70676;DHT22;59069;52.242;20.900;2023-06-10T03:40:58;18.49;53.27
70676;DHT22;59069;52.242;20.900;2023-06-10T03:43:23;18.53;53.35
70676;DHT22;59069;52.242;20.900;2023-06-10T03:45:49;18.56;53.36
70676;DHT22;59069;52.242;20.900;2023-06-10T03:48:14;18.61;53.37
70676;DHT22;59069;52.242;20.900;2023-06-10T03:50:40;18.62;53.35
70676;DHT22;59069;52.242;20.900;2023-06-10T03:53:06;18.71;53.40
70676;DHT22;59069;52.242;20.900;2023-06-10T03:55:31;18.76;53.32
70676;DHT22;59069;52.242;20.900;2023-06-10T03:57:56;18.82;53.24
70676;DHT22;59069;52.242;20.900;2023-06-10T04:00:22;18.85;53.30
70676;DHT22;59069;52.242;20.900;2023-06-10T04:02:47;18.92;53.15
70676;DHT22;59069;52.242;20.900;2023-06-10T04:05:18;18.96;53.12
70676;DHT22;59069;52.242;20.900;2023-06-10T04:07:43;19.02;53.02
70676;DHT22;59069;52.242;20.900;2023-06-10T04:10:10;19.06;52.89
70676;DHT22;59069;52.242;20.900;2023-06-10T04:12:36;19.10;52.81
70676;DHT22;59069;52.242;20.900;2023-06-10T04:15:03;19.14;52.79
70676;DHT22;59069;52.242;20.900;2023-06-10T04:17:28;19.20;52.76
70676;DHT22;59069;52.242;20.900;2023-06-10T04:19:54;19.23;52.70
70676;DHT22;59069;52.242;20.900;2023-06-10T04:22:20;19.26;52.62
70676;DHT22;59069;52.242;20.900;2023-06-10T04:24:46;19.31;52.64
70676;DHT22;59069;52.242;20.900;2023-06-10T04:27:11;19.41;52.62
70676;DHT22;59069;52.242;20.900;2023-06-10T04:29:36;19.46;52.57
70676;DHT22;59069;52.242;20.900;2023-06-10T04:32:02;19.50;52.42
70676;DHT22;59069;52.242;20.900;2023-06-10T04:34:28;19.54;52.28
70676;DHT22;59069;52.242;20.900;2023-06-10T04:36:54;19.55;52.25
70676;DHT22;59069;52.242;20.900;2023-06-10T04:39:19;19.58;52.24
70676;DHT22;59069;52.242;20.900;2023-06-10T04:41:45;19.64;52.22
70676;DHT22;59069;52.242;20.900;2023-06-10T04:44:11;19.71;52.22
70676;DHT22;59069;52.242;20.900;2023-06-10T04:46:37;19.78;51.97
70676;DHT22;59069;52.242;20.900;2023-06-10T04:49:02;19.79;51.88
70676;DHT22;59069;52.242;20.900;2023-06-10T04:51:28;19.82;51.76
70676;DHT22;59069;52.242;20.900;2023-06-10T04:53:54;19.84;51.69
70676;DHT22;59069;52.242;20.900;2023-06-10T04:56:19;19.92;51.61
70676;DHT22;59069;52.242;20.900;2023-06-10T04:58:45;19.98;51.59
70676;DHT22;59069;52.242;20.900;2023-06-10T05:01:11;20.05;51.42
70676;DHT22;59069;52.242;20.900;2023-06-10T05:03:36;20.11;51.34
70676;DHT22;59069;52.242;20.900;2023-06-10T05:06:01;20.16;51.38
70676;DHT22;59069;52.242;20.900;2023-06-10T05:08:27;20.23;51.34
70676;DHT22;59069;52.242;20.900;2023-06-10T05:10:52;20.26;51.25
70676;DHT22;59069;52.242;20.900;2023-06-10T05:13:18;20.29;51.15
70676;DHT22;59069;52.242;20.900;2023-06-10T05:15:43;20.30;51.19
70676;DHT22;59069;52.242;20.900;2023-06-10T05:18:10;20.33;51.15
70676;DHT22;59069;52.242;20.900;2023-06-10T05:20:37;20.39;51.19
70676;DHT22;59069;52.242;20.900;2023-06-10T05:23:03;20.45;51.41
70676;DHT22;59069;52.242;20.900;2023-06-10T05:25:30;20.50;51.32
70676;DHT22;59069;52.242;20.900;2023-06-10T05:27:56;20.54;51.08
70676;DHT22;59069;52.242;20.900;2023-06-10T05:30:21;20.54;50.89
70676;DHT22;59069;52.242;20.900;2023-06-10T05:32:48;20.54;51.08
70676;DHT22;59069;52.242;20.900;2023-06-10T05:35:13;20.57;50.97
70676;DHT22;59069;52.242;20.900;2023-06-10T05:37:39;20.57;50.95
70676;DHT22;59069;52.242;20.900;2023-06-10T05:40:05;20.63;51.15
70676;DHT22;59069;52.242;20.900;2023-06-10T05:42:31;20.67;51.02
70676;DHT22;59069;52.242;20.900;2023-06-10T05:44:56;20.73;51.01
70676;DHT22;59069;52.242;20.900;2023-06-10T05:47:22;20.81;50.74
70676;DHT22;59069;52.242;20.900;2023-06-10T05:49:47;20.93;50.68
70676;DHT22;59069;52.242;20.900;2023-06-10T05:52:15;21.01;50.61
70676;DHT22;59069;52.242;20.900;2023-06-10T05:54:40;21.14;50.14
70676;DHT22;59069;52.242;20.900;2023-06-10T05:57:05;21.21;49.92
70676;DHT22;59069;52.242;20.900;2023-06-10T05:59:31;21.31;50.09
70676;DHT22;59069;52.242;20.900;2023-06-10T06:01:57;21.39;49.95
70676;DHT22;59069;52.242;20.900;2023-06-10T06:04:22;21.49;49.41
70676;DHT22;59069;52.242;20.900;2023-06-10T06:06:47;21.52;49.16
70676;DHT22;59069;52.242;20.900;2023-06-10T06:09:13;21.56;48.82
70676;DHT22;59069;52.242;20.900;2023-06-10T06:11:38;21.56;48.78
70676;DHT22;59069;52.242;20.900;2023-06-10T06:14:04;21.59;48.83
70676;DHT22;59069;52.242;20.900;2023-06-10T06:16:29;21.67;48.96
70676;DHT22;59069;52.242;20.900;2023-06-10T06:18:55;21.69;49.05
70676;DHT22;59069;52.242;20.900;2023-06-10T06:21:20;21.78;48.81
70676;DHT22;59069;52.242;20.900;2023-06-10T06:23:46;21.85;49.17
70676;DHT22;59069;52.242;20.900;2023-06-10T06:26:11;21.96;49.31
70676;DHT22;59069;52.242;20.900;2023-06-10T06:28:36;22.03;49.27
70676;DHT22;59069;52.242;20.900;2023-06-10T06:31:02;22.12;48.86
70676;DHT22;59069;52.242;20.900;2023-06-10T06:33:27;22.17;48.49
70676;DHT22;59069;52.242;20.900;2023-06-10T06:35:53;22.18;48.35
70676;DHT22;59069;52.242;20.900;2023-06-10T06:38:18;22.29;48.25
70676;DHT22;59069;52.242;20.900;2023-06-10T06:40:44;22.37;48.03
70676;DHT22;59069;52.242;20.900;2023-06-10T06:43:09;22.47;48.10
70676;DHT22;59069;52.242;20.900;2023-06-10T06:45:35;22.63;48.03
70676;DHT22;59069;52.242;20.900;2023-06-10T06:48:00;22.67;47.38
70676;DHT22;59069;52.242;20.900;2023-06-10T06:50:26;22.65;47.15
70676;DHT22;59069;52.242;20.900;2023-06-10T06:52:51;22.67;47.06
70676;DHT22;59069;52.242;20.900;2023-06-10T06:55:16;22.71;47.22
70676;DHT22;59069;52.242;20.900;2023-06-10T06:57:42;22.71;47.07
70676;DHT22;59069;52.242;20.900;2023-06-10T07:00:08;22.79;47.20
70676;DHT22;59069;52.242;20.900;2023-06-10T07:02:35;22.92;47.54
70676;DHT22;59069;52.242;20.900;2023-06-10T07:05:00;23.11;47.27
70676;DHT22;59069;52.242;20.900;2023-06-10T07:07:26;23.19;46.81
70676;DHT22;59069;52.242;20.900;2023-06-10T07:09:52;23.35;46.72
70676;DHT22;59069;52.242;20.900;2023-06-10T07:12:17;23.43;46.39
70676;DHT22;59069;52.242;20.900;2023-06-10T07:14:44;23.50;45.75
70676;DHT22;59069;52.242;20.900;2023-06-10T07:17:10;23.45;45.66
70676;DHT22;59069;52.242;20.900;2023-06-10T07:19:35;23.47;45.98
70676;DHT22;59069;52.242;20.900;2023-06-10T07:22:01;23.56;45.85
70676;DHT22;59069;52.242;20.900;2023-06-10T07:24:26;23.60;45.53
70676;DHT22;59069;52.242;20.900;2023-06-10T07:26:52;23.60;45.32
70676;DHT22;59069;52.242;20.900;2023-06-10T07:29:17;23.65;45.58
70676;DHT22;59069;52.242;20.900;2023-06-10T07:31:43;23.65;45.03
70676;DHT22;59069;52.242;20.900;2023-06-10T07:34:08;23.66;45.03
70676;DHT22;59069;52.242;20.900;2023-06-10T07:36:33;23.62;44.98
70676;DHT22;59069;52.242;20.900;2023-06-10T07:38:59;23.56;44.81
70676;DHT22;59069;52.242;20.900;2023-06-10T07:41:24;23.52;45.30
70676;DHT22;59069;52.242;20.900;2023-06-10T07:43:54;23.59;45.48
70676;DHT22;59069;52.242;20.900;2023-06-10T07:46:23;23.66;45.37
70676;DHT22;59069;52.242;20.900;2023-06-10T07:48:49;23.67;45.28
70676;DHT22;59069;52.242;20.900;2023-06-10T07:51:16;23.80;45.51
70676;DHT22;59069;52.242;20.900;2023-06-10T07:53:41;23.96;45.21
70676;DHT22;59069;52.242;20.900;2023-06-10T07:56:07;24.18;44.82
70676;DHT22;59069;52.242;20.900;2023-06-10T07:58:32;24.31;44.11
70676;DHT22;59069;52.242;20.900;2023-06-10T08:00:58;24.32;43.38
70676;DHT22;59069;52.242;20.900;2023-06-10T08:03:23;24.39;44.11
70676;DHT22;59069;52.242;20.900;2023-06-10T08:05:49;24.51;43.24
70676;DHT22;59069;52.242;20.900;2023-06-10T08:08:14;24.55;43.37
70676;DHT22;59069;52.242;20.900;2023-06-10T08:10:40;24.55;43.05
70676;DHT22;59069;52.242;20.900;2023-06-10T08:13:05;24.52;43.27
70676;DHT22;59069;52.242;20.900;2023-06-10T08:15:31;24.49;43.04
70676;DHT22;59069;52.242;20.900;2023-06-10T08:17:56;24.47;42.95
70676;DHT22;59069;52.242;20.900;2023-06-10T08:20:22;24.57;43.37
70676;DHT22;59069;52.242;20.900;2023-06-10T08:22:47;24.71;43.30
70676;DHT22;59069;52.242;20.900;2023-06-10T08:25:13;24.95;42.93
70676;DHT22;59069;52.242;20.900;2023-06-10T08:27:38;25.15;42.04
70676;DHT22;59069;52.242;20.900;2023-06-10T08:30:04;25.23;41.52
70676;DHT22;59069;52.242;20.900;2023-06-10T08:32:30;25.22;41.00
70676;DHT22;59069;52.242;20.900;2023-06-10T08:34:55;25.18;41.03
70676;DHT22;59069;52.242;20.900;2023-06-10T08:37:21;25.05;40.51
70676;DHT22;59069;52.242;20.900;2023-06-10T08:39:47;24.85;41.32
70676;DHT22;59069;52.242;20.900;2023-06-10T08:42:24;24.82;42.43
70676;DHT22;59069;52.242;20.900;2023-06-10T08:44:56;24.90;42.68
70676;DHT22;59069;52.242;20.900;2023-06-10T08:47:25;25.00;42.39
70676;DHT22;59069;52.242;20.900;2023-06-10T08:49:51;25.03;42.28
70676;DHT22;59069;52.242;20.900;2023-06-10T08:52:19;25.05;41.92
70676;DHT22;59069;52.242;20.900;2023-06-10T08:54:59;24.90;41.49
70676;DHT22;59069;52.242;20.900;2023-06-10T08:57:27;24.83;41.85
70676;DHT22;59069;52.242;20.900;2023-06-10T08:59:53;24.85;41.68
70676;DHT22;59069;52.242;20.900;2023-06-10T09:02:22;24.75;41.43
70676;DHT22;59069;52.242;20.900;2023-06-10T09:04:49;24.58;41.92
70676;DHT22;59069;52.242;20.900;2023-06-10T09:07:18;24.57;42.07
70676;DHT22;59069;52.242;20.900;2023-06-10T09:09:44;24.68;42.51
70676;DHT22;59069;52.242;20.900;2023-06-10T09:12:10;24.86;41.72
70676;DHT22;59069;52.242;20.900;2023-06-10T09:14:37;25.00;40.94
70676;DHT22;59069;52.242;20.900;2023-06-10T09:17:03;25.00;40.91
70676;DHT22;59069;52.242;20.900;2023-06-10T09:19:29;25.06;41.29
70676;DHT22;59069;52.242;20.900;2023-06-10T09:21:54;25.12;40.65
70676;DHT22;59069;52.242;20.900;2023-06-10T09:24:24;25.08;40.48
70676;DHT22;59069;52.242;20.900;2023-06-10T09:26:49;25.06;40.38
70676;DHT22;59069;52.242;20.900;2023-06-10T09:29:17;25.10;40.11
70676;DHT22;59069;52.242;20.900;2023-06-10T09:31:43;25.08;39.17
70676;DHT22;59069;52.242;20.900;2023-06-10T09:34:11;25.18;39.16
70676;DHT22;59069;52.242;20.900;2023-06-10T09:36:39;25.30;38.66
70676;DHT22;59069;52.242;20.900;2023-06-10T09:39:05;25.43;38.47
70676;DHT22;59069;52.242;20.900;2023-06-10T09:41:40;25.56;38.65
70676;DHT22;59069;52.242;20.900;2023-06-10T09:44:17;25.71;38.02
70676;DHT22;59069;52.242;20.900;2023-06-10T09:46:45;25.75;36.63
70676;DHT22;59069;52.242;20.900;2023-06-10T09:49:11;25.75;35.92
70676;DHT22;59069;52.242;20.900;2023-06-10T09:51:36;25.71;35.29
70676;DHT22;59069;52.242;20.900;2023-06-10T09:54:03;25.68;35.46
70676;DHT22;59069;52.242;20.900;2023-06-10T09:56:37;25.73;35.27
70676;DHT22;59069;52.242;20.900;2023-06-10T09:59:05;25.80;34.95
70676;DHT22;59069;52.242;20.900;2023-06-10T10:01:31;25.88;34.82
70676;DHT22;59069;52.242;20.900;2023-06-10T10:03:59;25.92;34.07
70676;DHT22;59069;52.242;20.900;2023-06-10T10:06:25;25.94;34.35
70676;DHT22;59069;52.242;20.900;2023-06-10T10:08:51;25.97;34.21
70676;DHT22;59069;52.242;20.900;2023-06-10T10:11:18;25.98;34.74
70676;DHT22;59069;52.242;20.900;2023-06-10T10:13:45;26.02;34.62
70676;DHT22;59069;52.242;20.900;2023-06-10T10:16:15;26.05;33.23
70676;DHT22;59069;52.242;20.900;2023-06-10T10:18:43;26.04;32.44
70676;DHT22;59069;52.242;20.900;2023-06-10T10:21:16;26.01;32.46
70676;DHT22;59069;52.242;20.900;2023-06-10T10:23:53;25.98;32.69
70676;DHT22;59069;52.242;20.900;2023-06-10T10:26:21;25.95;32.53
70676;DHT22;59069;52.242;20.900;2023-06-10T10:28:53;25.94;32.67
70676;DHT22;59069;52.242;20.900;2023-06-10T10:31:23;26.01;32.67
70676;DHT22;59069;52.242;20.900;2023-06-10T10:34:00;26.04;32.55
70676;DHT22;59069;52.242;20.900;2023-06-10T10:36:27;26.09;32.78
70676;DHT22;59069;52.242;20.900;2023-06-10T10:38:54;26.21;32.82
70676;DHT22;59069;52.242;20.900;2023-06-10T10:41:20;26.32;32.97
70676;DHT22;59069;52.242;20.900;2023-06-10T10:43:46;26.39;32.67
70676;DHT22;59069;52.242;20.900;2023-06-10T10:46:14;26.43;32.33
70676;DHT22;59069;52.242;20.900;2023-06-10T10:48:40;26.52;32.05
70676;DHT22;59069;52.242;20.900;2023-06-10T10:51:09;26.57;31.85
70676;DHT22;59069;52.242;20.900;2023-06-10T10:53:38;26.56;31.82
70676;DHT22;59069;52.242;20.900;2023-06-10T10:56:06;26.62;31.41
70676;DHT22;59069;52.242;20.900;2023-06-10T10:58:35;26.63;31.27
70676;DHT22;59069;52.242;20.900;2023-06-10T11:01:10;26.75;31.11
70676;DHT22;59069;52.242;20.900;2023-06-10T11:03:42;26.73;31.07
70676;DHT22;59069;52.242;20.900;2023-06-10T11:06:18;26.72;31.08
70676;DHT22;59069;52.242;20.900;2023-06-10T11:11:24;26.78;31.05
70676;DHT22;59069;52.242;20.900;2023-06-10T11:16:29;26.99;30.82
70676;DHT22;59069;52.242;20.900;2023-06-10T11:18:56;27.14;30.52
70676;DHT22;59069;52.242;20.900;2023-06-10T11:21:25;27.24;29.79
70676;DHT22;59069;52.242;20.900;2023-06-10T11:23:51;27.29;29.60
70676;DHT22;59069;52.242;20.900;2023-06-10T11:31:33;27.58;29.05
70676;DHT22;59069;52.242;20.900;2023-06-10T11:34:00;27.61;28.81
70676;DHT22;59069;52.242;20.900;2023-06-10T11:36:28;27.68;28.60
70676;DHT22;59069;52.242;20.900;2023-06-10T11:39:01;27.84;28.40
70676;DHT22;59069;52.242;20.900;2023-06-10T11:41:29;27.93;28.71
70676;DHT22;59069;52.242;20.900;2023-06-10T11:43:57;28.08;29.06
70676;DHT22;59069;52.242;20.900;2023-06-10T11:46:26;28.12;29.67
70676;DHT22;59069;52.242;20.900;2023-06-10T11:48:54;28.09;29.45
70676;DHT22;59069;52.242;20.900;2023-06-10T11:51:20;27.93;30.16
70676;DHT22;59069;52.242;20.900;2023-06-10T11:53:47;27.89;30.31
70676;DHT22;59069;52.242;20.900;2023-06-10T11:56:12;27.93;30.99
70676;DHT22;59069;52.242;20.900;2023-06-10T11:58:43;28.06;31.14
70676;DHT22;59069;52.242;20.900;2023-06-10T12:01:10;28.14;30.66
70676;DHT22;59069;52.242;20.900;2023-06-10T12:03:37;28.06;30.52
70676;DHT22;59069;52.242;20.900;2023-06-10T12:06:06;28.12;31.24
70676;DHT22;59069;52.242;20.900;2023-06-10T12:08:32;28.23;30.23
70676;DHT22;59069;52.242;20.900;2023-06-10T12:10:59;28.33;29.22
70676;DHT22;59069;52.242;20.900;2023-06-10T12:13:28;28.42;29.01
70676;DHT22;59069;52.242;20.900;2023-06-10T12:15:54;28.46;28.83
70676;DHT22;59069;52.242;20.900;2023-06-10T12:18:21;28.47;28.25
70676;DHT22;59069;52.242;20.900;2023-06-10T12:20:47;28.52;28.07
70676;DHT22;59069;52.242;20.900;2023-06-10T12:23:14;28.71;28.27
70676;DHT22;59069;52.242;20.900;2023-06-10T12:25:52;28.81;28.07
70676;DHT22;59069;52.242;20.900;2023-06-10T12:28:26;28.91;27.40
70676;DHT22;59069;52.242;20.900;2023-06-10T12:31:06;29.04;27.37
70676;DHT22;59069;52.242;20.900;2023-06-10T12:33:32;29.14;27.67
70676;DHT22;59069;52.242;20.900;2023-06-10T12:35:58;29.05;27.94
70676;DHT22;59069;52.242;20.900;2023-06-10T12:38:25;29.02;28.13
70676;DHT22;59069;52.242;20.900;2023-06-10T12:40:52;29.05;27.86
70676;DHT22;59069;52.242;20.900;2023-06-10T12:43:22;29.10;27.54
70676;DHT22;59069;52.242;20.900;2023-06-10T12:45:49;29.12;28.07
70676;DHT22;59069;52.242;20.900;2023-06-10T12:48:19;29.14;28.22
70676;DHT22;59069;52.242;20.900;2023-06-10T12:50:51;29.12;28.56
70676;DHT22;59069;52.242;20.900;2023-06-10T12:53:18;29.18;28.48
70676;DHT22;59069;52.242;20.900;2023-06-10T12:55:43;29.31;29.00
70676;DHT22;59069;52.242;20.900;2023-06-10T12:58:10;29.39;29.25
70676;DHT22;59069;52.242;20.900;2023-06-10T13:00:36;29.36;28.90
70676;DHT22;59069;52.242;20.900;2023-06-10T13:03:03;29.22;29.44
70676;DHT22;59069;52.242;20.900;2023-06-10T13:05:31;29.19;29.52
70676;DHT22;59069;52.242;20.900;2023-06-10T13:07:57;29.18;29.15
70676;DHT22;59069;52.242;20.900;2023-06-10T13:10:22;29.19;29.38
70676;DHT22;59069;52.242;20.900;2023-06-10T13:12:48;29.26;29.43
70676;DHT22;59069;52.242;20.900;2023-06-10T13:15:15;29.29;29.15
70676;DHT22;59069;52.242;20.900;2023-06-10T13:17:41;29.32;28.91
70676;DHT22;59069;52.242;20.900;2023-06-10T13:20:07;29.43;29.66
70676;DHT22;59069;52.242;20.900;2023-06-10T13:22:34;29.62;30.18
70676;DHT22;59069;52.242;20.900;2023-06-10T13:25:04;29.73;29.76
70676;DHT22;59069;52.242;20.900;2023-06-10T13:27:32;29.67;29.99
70676;DHT22;59069;52.242;20.900;2023-06-10T13:29:57;29.67;30.08
70676;DHT22;59069;52.242;20.900;2023-06-10T13:32:23;29.73;30.31
70676;DHT22;59069;52.242;20.900;2023-06-10T13:34:48;29.75;30.33
70676;DHT22;59069;52.242;20.900;2023-06-10T13:37:18;29.90;30.16
70676;DHT22;59069;52.242;20.900;2023-06-10T13:39:44;29.94;29.54
70676;DHT22;59069;52.242;20.900;2023-06-10T13:42:12;29.69;29.00
70676;DHT22;59069;52.242;20.900;2023-06-10T13:44:38;29.48;29.88
70676;DHT22;59069;52.242;20.900;2023-06-10T13:47:03;29.51;30.43
70676;DHT22;59069;52.242;20.900;2023-06-10T13:49:29;29.61;30.56
70676;DHT22;59069;52.242;20.900;2023-06-10T13:51:55;29.70;30.88
70676;DHT22;59069;52.242;20.900;2023-06-10T13:54:20;29.51;30.03
70676;DHT22;59069;52.242;20.900;2023-06-10T13:56:46;29.11;30.25
70676;DHT22;59069;52.242;20.900;2023-06-10T13:59:12;28.70;30.58
70676;DHT22;59069;52.242;20.900;2023-06-10T14:01:37;28.40;30.71
70676;DHT22;59069;52.242;20.900;2023-06-10T14:04:04;28.37;31.43
70676;DHT22;59069;52.242;20.900;2023-06-10T14:06:29;28.47;31.01
70676;DHT22;59069;52.242;20.900;2023-06-10T14:08:55;28.71;30.90
70676;DHT22;59069;52.242;20.900;2023-06-10T14:11:21;28.91;31.08
70676;DHT22;59069;52.242;20.900;2023-06-10T14:13:46;29.08;31.52
70676;DHT22;59069;52.242;20.900;2023-06-10T14:16:12;29.18;31.03
70676;DHT22;59069;52.242;20.900;2023-06-10T14:18:38;29.31;31.43
70676;DHT22;59069;52.242;20.900;2023-06-10T14:21:03;29.48;31.46
70676;DHT22;59069;52.242;20.900;2023-06-10T14:23:29;29.67;31.43
70676;DHT22;59069;52.242;20.900;2023-06-10T14:25:54;29.84;31.54
70676;DHT22;59069;52.242;20.900;2023-06-10T14:28:20;29.99;31.23
70676;DHT22;59069;52.242;20.900;2023-06-10T14:30:45;29.94;30.42
70676;DHT22;59069;52.242;20.900;2023-06-10T14:33:11;29.65;30.85
70676;DHT22;59069;52.242;20.900;2023-06-10T14:35:36;29.24;31.68
70676;DHT22;59069;52.242;20.900;2023-06-10T14:38:02;28.98;32.15
70676;DHT22;59069;52.242;20.900;2023-06-10T14:40:27;28.71;32.86
70676;DHT22;59069;52.242;20.900;2023-06-10T14:42:57;28.59;33.58
70676;DHT22;59069;52.242;20.900;2023-06-10T14:45:22;28.59;33.44
70676;DHT22;59069;52.242;20.900;2023-06-10T14:47:48;28.56;33.59
70676;DHT22;59069;52.242;20.900;2023-06-10T14:50:14;28.64;33.13
70676;DHT22;59069;52.242;20.900;2023-06-10T14:52:40;28.74;32.82
70676;DHT22;59069;52.242;20.900;2023-06-10T14:55:05;28.81;32.53
70676;DHT22;59069;52.242;20.900;2023-06-10T14:57:31;28.90;32.77
70676;DHT22;59069;52.242;20.900;2023-06-10T14:59:56;28.98;32.50
70676;DHT22;59069;52.242;20.900;2023-06-10T15:02:22;28.93;32.08
70676;DHT22;59069;52.242;20.900;2023-06-10T15:04:48;28.97;31.77
70676;DHT22;59069;52.242;20.900;2023-06-10T15:07:13;28.91;31.89
70676;DHT22;59069;52.242;20.900;2023-06-10T15:09:41;28.90;31.91
70676;DHT22;59069;52.242;20.900;2023-06-10T15:12:07;28.78;31.61
70676;DHT22;59069;52.242;20.900;2023-06-10T15:14:33;28.60;31.97
70676;DHT22;59069;52.242;20.900;2023-06-10T15:16:58;28.26;32.83
70676;DHT22;59069;52.242;20.900;2023-06-10T15:19:25;27.98;33.69
70676;DHT22;59069;52.242;20.900;2023-06-10T15:21:51;27.95;34.81
70676;DHT22;59069;52.242;20.900;2023-06-10T15:24:17;27.93;34.66
70676;DHT22;59069;52.242;20.900;2023-06-10T15:26:43;27.99;35.20
70676;DHT22;59069;52.242;20.900;2023-06-10T15:29:08;27.98;35.15